Terminal Aerodrome Forecast
Issued by NWS St Louis, MO

Home | Current Version | Previous Version | Text Only | Print | Product List | Glossary On
Versions: 1 2 3 4 5 6 7 8 9 10 11 12 13
000
FTUS43 KLSX 151100
TAFCOU
TAF
KCOU 151138Z 1512/1612 31005KT P6SM SKC
     FM151500 32007KT P6SM SCT030
     FM152200 VRB04KT P6SM SKC
     FM160300 15005KT P6SM SKC=

USA.gov is the U.S. government's official web portal to all federal, state and local government web resources and services.